createdAt,value
2023-02-12T00:00:12.395Z,153.64
2023-02-12T00:01:12.399Z,158.10
2023-02-12T00:02:12.442Z,155.90
2023-02-12T00:03:12.416Z,154.67
2023-02-12T00:05:12.429Z,157.04
2023-02-12T00:06:14.817Z,157.39
2023-02-12T00:07:12.426Z,157.44
2023-02-12T00:08:12.410Z,157.37
2023-02-12T00:09:12.442Z,155.73
2023-02-12T00:10:12.409Z,156.25
2023-02-12T00:11:12.415Z,157.70
2023-02-12T00:12:12.431Z,154.05
2023-02-12T00:14:12.429Z,156.49
2023-02-12T00:15:12.420Z,155.64
2023-02-12T00:16:12.485Z,154.79
2023-02-12T00:17:12.435Z,156.61
2023-02-12T00:18:12.457Z,154.15
2023-02-12T00:19:12.466Z,153.97
2023-02-12T00:20:12.448Z,155.30
2023-02-12T00:21:12.459Z,156.61
2023-02-12T00:22:12.477Z,154.21
2023-02-12T00:23:12.455Z,155.86
2023-02-12T00:24:12.511Z,154.07
2023-02-12T00:25:12.475Z,155.65
2023-02-12T00:26:12.491Z,153.32
2023-02-12T00:27:12.514Z,153.90
2023-02-12T00:28:12.525Z,152.86
2023-02-12T00:29:12.484Z,154.74
2023-02-12T00:30:12.500Z,153.30
2023-02-12T00:31:12.669Z,156.00
2023-02-12T00:32:12.526Z,152.83
2023-02-12T00:33:12.499Z,153.56
2023-02-12T00:34:12.500Z,153.77
2023-02-12T00:35:12.510Z,153.90
2023-02-12T00:36:12.503Z,153.84
2023-02-12T00:37:12.512Z,153.35
2023-02-12T00:38:12.502Z,153.02
2023-02-12T00:39:12.540Z,153.60
2023-02-12T00:40:12.549Z,153.80
2023-02-12T00:41:12.519Z,154.03
2023-02-12T00:42:12.502Z,154.55
2023-02-12T00:43:12.514Z,153.14
2023-02-12T00:44:12.521Z,154.02
2023-02-12T00:45:12.536Z,155.15
2023-02-12T00:46:12.602Z,154.68
2023-02-12T00:47:12.522Z,153.09
2023-02-12T00:48:12.536Z,153.28
2023-02-12T00:49:12.524Z,153.43
2023-02-12T00:50:12.540Z,154.38
2023-02-12T00:51:12.562Z,153.41
2023-02-12T00:52:12.565Z,156.00
2023-02-12T00:53:12.556Z,155.62
2023-02-12T00:54:12.570Z,154.29
2023-02-12T00:55:12.554Z,152.32
2023-02-12T00:56:12.570Z,153.23
2023-02-12T00:57:12.583Z,153.22
2023-02-12T00:58:12.578Z,153.53
2023-02-12T00:59:12.567Z,153.19
2023-02-12T01:00:12.574Z,153.44
2023-02-12T01:01:12.629Z,154.65
2023-02-12T01:02:12.614Z,156.03
2023-02-12T01:03:12.627Z,154.17
2023-02-12T01:04:12.581Z,154.38
2023-02-12T01:05:12.641Z,154.45
2023-02-12T01:06:12.611Z,155.11
2023-02-12T01:07:12.622Z,155.37
2023-02-12T01:08:12.586Z,155.92
2023-02-12T01:09:12.582Z,158.29
2023-02-12T01:10:12.623Z,157.44
2023-02-12T01:11:12.619Z,154.50
2023-02-12T01:12:12.631Z,154.03
2023-02-12T01:13:12.600Z,155.66
2023-02-12T01:14:12.597Z,155.86
2023-02-12T03:55:13.944Z,27.03
2023-02-12T04:35:13.929Z,96.18
2023-02-12T04:36:13.941Z,95.13
2023-02-12T04:37:13.945Z,96.37
2023-02-12T04:38:13.974Z,92.05
2023-02-12T04:39:13.976Z,93.07
2023-02-12T04:40:13.992Z,89.84
2023-02-12T04:41:14.007Z,87.58
2023-02-12T04:42:14.081Z,88.18
2023-02-12T04:43:14.019Z,83.44
2023-02-12T04:44:14.082Z,81.69
2023-02-12T04:45:14.050Z,77.60
2023-02-12T04:46:14.099Z,77.22
2023-02-12T04:47:14.135Z,76.91
2023-02-12T04:48:14.110Z,77.01
2023-02-12T04:49:14.142Z,75.55
2023-02-12T04:50:14.138Z,71.75
2023-02-12T04:51:14.193Z,75.26
2023-02-12T04:52:14.202Z,79.51
2023-02-12T04:53:14.205Z,79.61
2023-02-12T04:54:14.202Z,80.51
2023-02-12T04:55:14.243Z,82.52
2023-02-12T04:56:14.239Z,85.31
2023-02-12T04:57:14.247Z,83.52
2023-02-12T04:58:14.273Z,77.21
2023-02-12T04:59:14.292Z,70.35
2023-02-12T05:00:14.315Z,69.75
2023-02-12T05:01:14.328Z,64.71
2023-02-12T05:02:14.335Z,62.69
2023-02-12T05:03:14.334Z,67.54
2023-02-12T05:04:14.398Z,60.58
2023-02-12T05:05:14.398Z,58.97
2023-02-12T05:06:14.388Z,58.57
2023-02-12T05:07:14.412Z,56.00
2023-02-12T05:08:14.435Z,54.78
2023-02-12T05:09:14.454Z,56.36
2023-02-12T05:10:14.472Z,54.33
2023-02-12T05:11:14.474Z,56.19
2023-02-12T05:12:14.511Z,55.50
2023-02-12T05:13:15.474Z,54.23
2023-02-12T05:14:14.543Z,48.86
2023-02-12T05:15:14.546Z,43.19
2023-02-12T05:16:14.590Z,41.96
2023-02-12T05:17:14.582Z,38.64
2023-02-12T05:18:14.627Z,35.03
2023-02-12T05:19:14.616Z,37.54
2023-02-12T05:20:14.617Z,32.82
2023-02-12T05:21:14.655Z,30.59
2023-02-12T05:22:14.665Z,27.62
2023-02-12T05:23:14.656Z,26.96
2023-02-12T05:24:14.667Z,25.39
2023-02-12T05:25:15.501Z,25.00
2023-02-12T05:26:14.721Z,28.23
2023-02-12T05:27:14.774Z,27.71
2023-02-12T05:28:14.780Z,31.75
2023-02-12T05:29:14.747Z,33.63
2023-02-12T05:30:14.789Z,36.87
2023-02-12T05:31:14.938Z,42.51
2023-02-12T05:32:14.891Z,43.22
2023-02-12T05:33:14.819Z,42.88
2023-02-12T05:34:14.833Z,42.84
2023-02-12T05:35:14.842Z,37.59
2023-02-12T05:36:14.869Z,37.13
2023-02-12T05:37:14.918Z,37.42
2023-02-12T05:38:14.933Z,31.97
2023-02-12T05:39:14.916Z,29.23
2023-02-12T05:40:14.932Z,26.01
2023-02-12T05:41:14.963Z,25.21
2023-02-12T05:42:14.960Z,25.39
2023-02-12T05:43:14.967Z,27.75
2023-02-12T05:44:15.007Z,26.43
2023-02-12T05:45:15.000Z,26.01
2023-02-12T05:46:15.060Z,33.48
2023-02-12T05:47:15.040Z,31.40
2023-02-12T05:48:15.052Z,25.51
2023-02-12T05:49:15.079Z,29.58
2023-02-12T05:50:15.108Z,26.98
2023-02-12T05:51:15.120Z,28.25
2023-02-12T05:52:15.147Z,35.69
2023-02-12T05:53:15.150Z,41.33
2023-02-12T05:54:15.159Z,49.46
2023-02-12T05:55:15.202Z,54.88
2023-02-12T05:56:15.210Z,59.16
2023-02-12T05:57:15.224Z,61.57
2023-02-12T05:58:16.190Z,62.44
2023-02-12T05:59:15.242Z,62.66
2023-02-12T06:00:15.260Z,63.84
2023-02-12T06:01:15.269Z,66.14
2023-02-12T06:02:15.348Z,70.55
2023-02-12T06:03:15.314Z,79.04
2023-02-12T06:04:15.446Z,77.24
2023-02-12T06:05:15.369Z,76.91
2023-02-12T06:06:15.382Z,77.27
2023-02-12T06:07:15.416Z,80.55
2023-02-12T06:08:15.423Z,80.19
2023-02-12T06:09:15.435Z,78.24
2023-02-12T06:10:15.500Z,78.89
2023-02-12T06:11:15.493Z,79.96
2023-02-12T06:12:15.502Z,73.95
2023-02-12T06:13:15.558Z,75.07
2023-02-12T06:14:15.592Z,73.34
2023-02-12T06:15:15.546Z,75.67
2023-02-12T06:16:15.638Z,72.97
2023-02-12T06:17:15.578Z,72.78
2023-02-12T06:18:15.610Z,70.14
2023-02-12T06:19:15.598Z,67.95
2023-02-12T06:20:15.646Z,64.21
2023-02-12T06:21:15.642Z,71.92
2023-02-12T06:22:15.650Z,72.09
2023-02-12T06:23:15.688Z,72.80
2023-02-12T06:24:15.680Z,68.82
2023-02-12T06:25:15.705Z,70.14
2023-02-12T06:26:15.706Z,73.65
2023-02-12T06:27:15.731Z,68.86
2023-02-12T06:28:15.809Z,68.09
2023-02-12T06:29:15.762Z,67.24
2023-02-12T06:30:15.810Z,63.88
2023-02-12T06:31:15.876Z,62.61
2023-02-12T06:32:15.877Z,63.26
2023-02-12T06:33:15.842Z,60.43
2023-02-12T06:34:15.870Z,62.16
2023-02-12T06:35:15.885Z,59.85
2023-02-12T06:36:15.881Z,65.08
2023-02-12T06:37:15.914Z,64.84
2023-02-12T06:38:15.920Z,65.52
2023-02-12T06:39:15.954Z,64.72
2023-02-12T06:40:15.955Z,67.18
2023-02-12T06:41:15.990Z,72.82
2023-02-12T06:42:15.991Z,76.84
2023-02-12T06:43:16.000Z,80.26
2023-02-12T07:34:16.903Z,141.51
2023-02-12T07:35:16.909Z,143.34
2023-02-12T07:36:16.957Z,142.13
2023-02-12T07:37:16.937Z,144.85
2023-02-12T07:39:16.979Z,144.86
2023-02-12T07:40:17.005Z,143.83
2023-02-12T07:41:17.005Z,144.80
2023-02-12T07:42:17.012Z,145.24
2023-02-12T07:43:17.027Z,148.19
2023-02-12T07:44:17.060Z,147.20
2023-02-12T07:45:17.070Z,147.61
2023-02-12T07:46:17.225Z,148.17
2023-02-12T07:47:17.088Z,153.27
2023-02-12T07:48:17.106Z,153.22
2023-02-12T07:49:17.136Z,150.21
2023-02-12T07:50:17.152Z,150.28
2023-02-12T07:51:17.144Z,150.39
2023-02-12T07:52:17.166Z,151.72
2023-02-12T07:53:17.191Z,152.56
2023-02-12T07:54:17.545Z,152.77
2023-02-12T07:55:17.233Z,150.96
2023-02-12T07:56:17.252Z,152.20
2023-02-12T07:57:17.245Z,148.05
2023-02-12T07:58:17.264Z,149.24
2023-02-12T07:59:17.269Z,155.01
2023-02-12T08:00:17.303Z,152.63
2023-02-12T08:01:17.308Z,152.21
2023-02-12T08:02:17.358Z,152.04
2023-02-12T08:03:17.350Z,150.48
2023-02-12T08:04:17.396Z,147.55
2023-02-12T08:05:17.378Z,148.18
2023-02-12T08:06:17.390Z,146.21
2023-02-12T08:07:17.380Z,145.42
2023-02-12T08:08:17.417Z,145.48
2023-02-12T08:09:17.886Z,145.87
2023-02-12T08:10:17.433Z,147.31
2023-02-12T08:11:17.450Z,150.51
2023-02-12T08:12:17.537Z,158.27
2023-02-12T08:13:17.494Z,163.65
2023-02-12T08:14:17.510Z,165.75
2023-02-12T08:15:17.531Z,168.07
2023-02-12T08:16:17.608Z,168.93
2023-02-12T08:17:17.562Z,172.71
2023-02-12T08:18:17.537Z,175.48
2023-02-12T08:19:21.148Z,177.73
2023-02-12T08:20:18.642Z,177.84
2023-02-12T08:21:17.578Z,178.33
2023-02-12T08:22:17.613Z,179.60
2023-02-12T08:23:17.620Z,180.52
2023-02-12T08:24:17.647Z,184.93
2023-02-12T08:25:17.653Z,185.71
2023-02-12T08:26:17.665Z,186.00
2023-02-12T08:27:17.704Z,186.04
2023-02-12T08:28:17.704Z,188.10
2023-02-12T08:29:17.675Z,189.18
2023-02-12T08:30:17.701Z,190.96
2023-02-12T08:31:17.826Z,193.82
2023-02-12T08:32:17.747Z,191.56
2023-02-12T08:33:17.716Z,195.81
2023-02-12T08:34:17.724Z,195.13
2023-02-12T08:35:17.750Z,193.63
2023-02-12T08:36:17.788Z,195.93
2023-02-12T08:37:17.778Z,196.43
2023-02-12T08:38:17.778Z,198.31
2023-02-12T08:39:17.787Z,197.70
2023-02-12T08:40:17.784Z,199.63
2023-02-12T08:41:19.857Z,198.17
2023-02-12T08:42:17.794Z,200.37
2023-02-12T08:43:17.797Z,200.61
2023-02-12T08:44:17.871Z,203.85
2023-02-12T08:47:05.846Z,25.00
2023-02-12T08:48:05.833Z,25.00
2023-02-12T08:49:05.818Z,25.00
2023-02-12T08:50:05.809Z,25.00
2023-02-12T08:51:05.820Z,25.00
2023-02-12T08:52:05.818Z,26.48
2023-02-12T08:53:05.796Z,27.20
2023-02-12T08:54:05.799Z,26.17
2023-02-12T08:55:05.791Z,26.74
2023-02-12T08:56:05.748Z,27.47
2023-02-12T08:57:05.772Z,27.67
2023-02-12T08:58:05.720Z,26.71
2023-02-12T08:59:05.728Z,25.87
2023-02-12T09:00:05.763Z,27.38
2023-02-12T09:01:05.743Z,28.93
2023-02-12T09:02:05.711Z,25.25
2023-02-12T09:03:05.700Z,28.63
2023-02-12T09:04:05.697Z,28.71
2023-02-12T09:05:05.706Z,28.00
2023-02-12T09:06:05.688Z,31.17
2023-02-12T09:07:05.686Z,28.77
2023-02-12T09:08:05.636Z,32.60
2023-02-12T09:09:05.624Z,31.70
2023-02-12T09:10:05.638Z,33.10
2023-02-12T09:11:05.612Z,30.77
2023-02-12T09:12:05.616Z,33.55
2023-02-12T09:13:05.576Z,34.47
2023-02-12T09:14:05.593Z,36.89
2023-02-12T09:15:05.554Z,32.21
2023-02-12T09:16:05.543Z,34.28
2023-02-12T09:17:05.655Z,37.50
2023-02-12T09:18:05.524Z,33.20
2023-02-12T09:19:05.504Z,36.02
2023-02-12T09:20:05.496Z,34.07
2023-02-12T09:21:05.495Z,36.94
2023-02-12T09:22:05.475Z,39.04
2023-02-12T09:23:05.452Z,35.86
2023-02-12T09:24:05.456Z,38.07
2023-02-12T09:25:05.433Z,35.84
2023-02-12T09:26:05.429Z,39.58
2023-02-12T09:27:05.435Z,38.54
2023-02-12T09:28:06.062Z,40.59
2023-02-12T09:29:05.408Z,38.90
2023-02-12T09:30:05.385Z,40.10
2023-02-12T09:31:05.470Z,35.11
2023-02-12T09:32:05.355Z,37.77
2023-02-12T09:33:05.350Z,39.53
2023-02-12T09:34:05.317Z,40.85
2023-02-12T09:35:05.284Z,40.92
2023-02-12T09:36:05.285Z,40.54
2023-02-12T09:37:05.290Z,41.51
2023-02-12T09:38:05.248Z,40.27
2023-02-12T09:39:05.255Z,40.69
2023-02-12T09:40:05.214Z,42.84
2023-02-12T09:41:05.222Z,42.56
2023-02-12T09:42:05.193Z,39.51
2023-02-12T09:43:05.200Z,42.44
2023-02-12T09:44:05.149Z,42.63
2023-02-12T09:45:05.125Z,40.55
2023-02-12T09:46:05.186Z,41.70
2023-02-12T09:47:05.105Z,41.92
2023-02-12T09:48:05.068Z,41.08
2023-02-12T09:49:05.057Z,44.51
2023-02-12T09:50:05.066Z,43.30
2023-02-12T09:51:05.052Z,45.92
2023-02-12T09:52:05.007Z,45.90
2023-02-12T09:53:04.995Z,45.24
2023-02-12T09:54:05.003Z,45.64
2023-02-12T09:55:04.972Z,46.47
2023-02-12T09:56:04.972Z,46.67
2023-02-12T09:57:04.953Z,46.99
2023-02-12T09:58:04.939Z,48.15
2023-02-12T09:59:04.903Z,48.06
2023-02-12T10:00:04.916Z,49.18
2023-02-12T10:01:04.900Z,48.17
2023-02-12T10:02:04.887Z,49.03
2023-02-12T10:03:05.831Z,48.77
2023-02-12T10:04:04.868Z,50.60
2023-02-12T10:05:04.918Z,51.58
2023-02-12T10:06:04.786Z,49.15
2023-02-12T10:07:04.755Z,48.14
2023-02-12T10:08:04.799Z,50.48
2023-02-12T10:09:04.725Z,51.36
2023-02-12T10:10:06.979Z,51.16
2023-02-12T10:11:04.669Z,54.29
2023-02-12T10:12:04.655Z,53.63
2023-02-12T10:13:04.627Z,49.99
2023-02-12T10:14:04.598Z,51.47
2023-02-12T10:15:04.598Z,50.81
2023-02-12T10:16:04.676Z,51.23
2023-02-12T10:17:04.536Z,52.68
2023-02-12T10:18:05.479Z,52.06
2023-02-12T10:19:04.497Z,50.34
2023-02-12T10:20:04.468Z,50.93
2023-02-12T10:21:04.455Z,49.28
2023-02-12T10:22:04.438Z,48.97
2023-02-12T10:23:04.440Z,49.45
2023-02-12T10:24:04.379Z,47.87
2023-02-12T10:25:04.351Z,47.79
2023-02-12T10:26:04.337Z,47.65
2023-02-12T10:27:04.319Z,47.37
2023-02-12T10:28:05.130Z,47.48
2023-02-12T10:29:04.275Z,46.58
2023-02-12T10:30:04.242Z,47.50
2023-02-12T10:31:04.289Z,48.34
2023-02-12T10:32:04.260Z,48.69
2023-02-12T10:33:04.181Z,48.20
2023-02-12T10:34:04.145Z,50.28
2023-02-12T10:35:04.108Z,46.98
2023-02-12T10:36:04.085Z,47.30
2023-02-12T10:37:04.080Z,47.31
2023-02-12T10:38:04.048Z,47.25
2023-02-12T10:39:04.052Z,46.96
2023-02-12T10:40:03.994Z,45.96
2023-02-12T10:41:03.978Z,44.50
2023-02-12T10:42:03.957Z,45.77
2023-02-12T10:43:03.963Z,44.46
2023-02-12T11:09:04.053Z,46.28
2023-02-12T11:40:04.574Z,36.44
2023-02-12T12:36:01.329Z,30.09
2023-02-12T12:37:02.084Z,29.38
2023-02-12T12:38:01.278Z,28.73
2023-02-12T12:39:01.247Z,32.52
2023-02-12T12:40:01.254Z,32.78
2023-02-12T12:41:01.206Z,32.43
2023-02-12T12:42:01.167Z,32.66
2023-02-12T12:43:01.165Z,32.57
2023-02-12T12:44:01.146Z,33.05
2023-02-12T12:45:01.085Z,30.79
2023-02-12T12:46:01.101Z,38.54
2023-02-12T12:47:01.022Z,35.21
2023-02-12T12:48:01.013Z,35.12
2023-02-12T12:49:01.011Z,36.97
2023-02-12T12:50:00.966Z,40.47
2023-02-12T12:51:00.943Z,41.14
2023-02-12T12:52:00.922Z,41.84
2023-02-12T12:53:00.893Z,45.59
2023-02-12T12:54:00.900Z,47.02
2023-02-12T12:55:00.833Z,48.23
2023-02-12T12:56:00.846Z,50.53
2023-02-12T12:57:00.801Z,52.25
2023-02-12T12:58:00.777Z,52.76
2023-02-12T12:59:00.769Z,56.65
2023-02-12T13:00:00.732Z,55.46
2023-02-12T13:01:00.715Z,60.38
2023-02-12T13:02:00.707Z,60.68
2023-02-12T13:03:00.638Z,62.02
2023-02-12T13:04:00.623Z,64.76
2023-02-12T13:05:00.593Z,64.01
2023-02-12T13:06:00.556Z,64.57
2023-02-12T13:07:00.545Z,66.56
2023-02-12T13:08:00.510Z,68.43
2023-02-12T13:09:00.482Z,69.66
2023-02-12T13:10:00.460Z,69.03
2023-02-12T13:11:00.453Z,72.65
2023-02-12T13:12:00.418Z,75.18
2023-02-12T13:13:00.393Z,74.13
2023-02-12T13:14:00.376Z,76.52
2023-02-12T13:15:00.350Z,82.95
2023-02-12T13:16:00.323Z,82.13
2023-02-12T13:17:00.283Z,83.07
2023-02-12T13:18:00.272Z,86.59
2023-02-12T13:19:00.243Z,86.18
2023-02-12T13:20:00.214Z,86.59
2023-02-12T13:21:00.233Z,87.28
2023-02-12T13:22:00.177Z,88.25
2023-02-12T13:23:00.131Z,88.20
2023-02-12T13:24:00.131Z,89.05
2023-02-12T13:25:00.134Z,89.97
2023-02-12T13:26:00.080Z,91.79
2023-02-12T13:27:00.043Z,91.78
2023-02-12T13:28:00.108Z,90.98
2023-02-12T13:28:59.992Z,91.72
2023-02-12T13:29:59.989Z,91.50
2023-02-12T13:31:00.043Z,95.10
2023-02-12T13:32:00.024Z,94.40
2023-02-12T13:32:59.874Z,94.39
2023-02-12T13:33:59.865Z,95.05
2023-02-12T13:35:00.163Z,95.89
2023-02-12T13:35:59.803Z,96.48
2023-02-12T13:36:59.781Z,93.80
2023-02-12T13:37:59.772Z,94.12
2023-02-12T13:38:59.757Z,94.54
2023-02-12T13:39:59.744Z,95.83
2023-02-12T13:40:59.686Z,97.38
2023-02-12T13:41:59.678Z,99.82
2023-02-12T13:42:59.649Z,98.64
2023-02-12T13:43:59.617Z,100.78
2023-02-12T13:44:59.594Z,99.01
2023-02-12T13:45:59.718Z,99.69
2023-02-12T13:46:59.538Z,97.44
2023-02-12T13:47:59.508Z,98.39
2023-02-12T13:48:59.596Z,100.32
2023-02-12T13:49:59.510Z,102.20
2023-02-12T13:51:01.274Z,99.48
2023-02-12T13:51:59.439Z,99.74
2023-02-12T13:52:59.413Z,100.25
2023-02-12T13:53:59.396Z,102.80
2023-02-12T13:54:59.351Z,103.58
2023-02-12T13:55:59.326Z,100.09
2023-02-12T13:56:59.336Z,101.46
2023-02-12T13:57:59.299Z,101.46
2023-02-12T13:59:00.148Z,102.52
2023-02-12T13:59:59.279Z,103.20
2023-02-12T14:00:59.273Z,103.83
2023-02-12T14:02:00.149Z,103.84
2023-02-12T14:03:00.122Z,103.52
2023-02-12T14:03:59.132Z,102.75
2023-02-12T14:04:59.099Z,104.04
2023-02-12T14:05:59.092Z,103.62
2023-02-12T14:07:01.034Z,103.53
2023-02-12T14:07:59.032Z,102.38
2023-02-12T14:08:59.009Z,106.41
2023-02-12T14:09:58.970Z,103.99
2023-02-12T14:10:58.971Z,101.47
2023-02-12T14:11:59.625Z,104.55
2023-02-12T14:12:58.921Z,104.79
2023-02-12T14:13:58.913Z,106.04
2023-02-12T14:14:58.869Z,104.34
2023-02-12T14:15:59.380Z,104.19
2023-02-12T14:16:58.808Z,105.25
2023-02-12T14:17:58.835Z,107.81
2023-02-12T14:18:58.781Z,104.69
2023-02-12T14:19:58.743Z,105.20
2023-02-12T14:20:58.715Z,106.51
2023-02-12T14:21:58.720Z,105.94
2023-02-12T14:22:58.689Z,106.59
2023-02-12T14:23:58.676Z,107.75
2023-02-12T14:24:58.645Z,107.92
2023-02-12T14:25:58.787Z,107.29
2023-02-12T14:26:58.578Z,106.93
2023-02-12T14:27:58.629Z,107.18
2023-02-12T14:28:58.538Z,106.07
2023-02-12T14:29:58.522Z,107.56
2023-02-12T14:30:58.599Z,106.94
2023-02-12T14:31:58.616Z,108.14
2023-02-12T14:32:58.463Z,106.74
2023-02-12T14:33:58.412Z,106.94
2023-02-12T14:34:58.392Z,108.15
2023-02-12T14:35:58.624Z,105.94
2023-02-12T14:36:58.329Z,106.04
2023-02-12T14:37:59.311Z,107.10
2023-02-12T14:38:58.289Z,108.46
2023-02-12T14:39:58.267Z,107.05
2023-02-12T14:40:58.252Z,107.05
2023-02-12T14:41:58.225Z,104.30
2023-02-12T14:42:58.173Z,106.53
2023-02-12T14:43:58.209Z,102.83
2023-02-12T14:44:58.132Z,108.51
2023-02-12T14:45:58.601Z,106.84
2023-02-12T14:46:58.077Z,108.20
2023-02-12T14:47:58.067Z,107.72
2023-02-12T14:48:58.043Z,105.35
2023-02-12T14:49:58.004Z,106.31
2023-02-12T14:50:58.042Z,106.79
2023-02-12T14:51:57.985Z,108.73
2023-02-12T14:52:57.934Z,109.05
2023-02-12T14:53:57.935Z,108.13
2023-02-12T14:54:57.906Z,106.79
2023-02-12T14:55:58.206Z,108.92
2023-02-12T14:56:57.849Z,107.98
2023-02-12T14:57:57.819Z,106.43
2023-02-12T14:58:57.791Z,106.67
2023-02-12T14:59:57.756Z,107.00
2023-02-12T15:00:57.764Z,106.15
2023-02-12T15:01:57.740Z,106.66
2023-02-12T15:02:57.683Z,107.95
2023-02-12T15:03:57.658Z,107.77
2023-02-12T15:04:57.683Z,107.40
2023-02-12T15:05:58.003Z,104.39
2023-02-12T15:06:57.601Z,108.37
2023-02-12T15:07:57.579Z,108.92
2023-02-12T15:08:57.551Z,106.06
2023-02-12T15:09:57.554Z,108.58
2023-02-12T15:10:57.498Z,106.33
2023-02-12T15:11:57.526Z,106.73
2023-02-12T15:12:57.468Z,106.36
2023-02-12T15:13:57.445Z,106.08
2023-02-12T15:14:57.422Z,107.63
2023-02-12T15:15:57.427Z,106.16
2023-02-12T15:16:57.650Z,107.93
2023-02-12T15:17:57.365Z,107.24
2023-02-12T15:18:57.312Z,106.62
2023-02-12T15:19:57.317Z,107.58
2023-02-12T15:20:57.278Z,107.66
2023-02-12T15:21:57.273Z,104.74
2023-02-12T15:22:57.237Z,104.71
2023-02-12T15:23:57.202Z,104.29
2023-02-12T15:24:57.174Z,106.79
2023-02-12T15:25:57.611Z,104.87
2023-02-12T15:26:57.138Z,107.17
2023-02-12T15:27:57.089Z,106.49
2023-02-12T15:28:57.087Z,104.88
2023-02-12T15:29:57.066Z,106.47
2023-02-12T15:30:57.115Z,104.69
2023-02-12T15:31:57.284Z,105.95
2023-02-12T15:32:56.987Z,103.91
2023-02-12T15:33:56.965Z,104.91
2023-02-12T15:34:56.924Z,106.36
2023-02-12T15:35:57.339Z,104.75
2023-02-12T15:36:56.912Z,105.97
2023-02-12T15:37:56.860Z,105.77
2023-02-12T15:38:56.863Z,104.26
2023-02-12T15:39:56.825Z,106.05
2023-02-12T15:40:56.800Z,104.76
2023-02-12T15:41:56.765Z,103.99
2023-02-12T15:42:56.757Z,103.67
2023-02-12T15:43:56.751Z,103.15
2023-02-12T15:44:56.751Z,103.40
2023-02-12T15:45:57.050Z,107.25
2023-02-12T15:46:56.702Z,103.68
2023-02-12T15:47:56.659Z,106.03
2023-02-12T15:48:56.655Z,103.27
2023-02-12T15:49:56.643Z,102.13
2023-02-12T15:50:56.604Z,101.32
2023-02-12T15:51:56.600Z,104.40
2023-02-12T15:52:56.539Z,104.14
2023-02-12T15:53:56.541Z,102.59
2023-02-12T15:54:56.520Z,100.70
2023-02-12T15:55:56.864Z,102.47
2023-02-12T15:56:57.715Z,102.59
2023-02-12T15:57:59.282Z,104.93
2023-02-12T15:58:56.500Z,104.01
2023-02-12T15:59:56.446Z,104.62
2023-02-12T16:00:56.382Z,101.32
2023-02-12T16:01:56.462Z,102.43
2023-02-12T16:02:56.355Z,103.50
2023-02-12T16:03:56.396Z,101.00
2023-02-12T16:04:56.345Z,102.83
2023-02-12T16:05:56.642Z,101.64
2023-02-12T16:06:56.288Z,102.23
2023-02-12T16:07:56.257Z,102.78
2023-02-12T16:08:56.231Z,99.19
2023-02-12T16:09:56.205Z,99.08
2023-02-12T16:10:56.200Z,100.35
2023-02-12T16:11:56.181Z,101.02
2023-02-12T16:12:56.179Z,102.70
2023-02-12T16:13:56.148Z,99.15
2023-02-12T16:14:56.148Z,98.77
2023-02-12T16:15:56.430Z,98.97
2023-02-12T16:16:56.071Z,99.96
2023-02-12T16:17:56.055Z,95.80
2023-02-12T16:18:56.052Z,100.98
2023-02-12T16:19:56.014Z,99.88
2023-02-12T16:20:55.990Z,97.38
2023-02-12T16:21:55.968Z,97.17
2023-02-12T16:22:55.957Z,98.00
2023-02-12T16:23:55.947Z,96.74
2023-02-12T16:24:55.929Z,99.70
2023-02-12T16:25:56.198Z,98.32
2023-02-12T16:26:55.871Z,97.54
2023-02-12T16:27:55.873Z,97.25
2023-02-12T16:28:55.843Z,96.92
2023-02-12T16:29:55.810Z,97.47
2023-02-12T16:30:55.829Z,97.15
2023-02-12T16:31:55.830Z,96.93
2023-02-12T16:32:55.772Z,95.61
2023-02-12T16:33:55.742Z,96.20
2023-02-12T16:34:55.718Z,99.58
2023-02-12T16:35:56.104Z,96.05
2023-02-12T16:36:56.704Z,96.42
2023-02-12T16:37:55.675Z,96.59
2023-02-12T16:38:55.643Z,96.66
2023-02-12T16:39:55.639Z,97.14
2023-02-12T16:40:55.658Z,97.77
2023-02-12T16:41:55.621Z,95.05
2023-02-12T16:42:55.557Z,94.42
2023-02-12T16:43:55.530Z,95.43
2023-02-12T16:44:55.512Z,95.59
2023-02-12T16:45:55.872Z,95.97
2023-02-12T16:46:55.515Z,96.47
2023-02-12T16:47:55.736Z,96.42
2023-02-12T16:48:55.439Z,96.44
2023-02-12T16:49:55.391Z,96.06
2023-02-12T16:50:55.373Z,94.84
2023-02-12T16:51:55.350Z,95.02
2023-02-12T16:52:55.344Z,95.69
2023-02-12T16:53:55.318Z,95.10
2023-02-12T16:54:55.300Z,95.46
2023-02-12T16:55:55.726Z,95.58
2023-02-12T16:56:55.276Z,95.97
2023-02-12T16:57:55.243Z,94.05
2023-02-12T16:58:55.241Z,96.71
2023-02-12T16:59:55.182Z,91.99
2023-02-12T17:00:55.208Z,96.64
2023-02-12T17:01:55.168Z,92.82
2023-02-12T17:02:55.137Z,91.09
2023-02-12T17:03:55.118Z,94.66
2023-02-12T17:04:55.800Z,90.44
2023-02-12T17:05:55.291Z,94.94
2023-02-12T17:06:55.060Z,93.33
2023-02-12T17:07:55.029Z,94.36
2023-02-12T17:08:55.052Z,91.56
2023-02-12T17:09:55.017Z,91.71
2023-02-12T17:10:54.988Z,90.62
2023-02-12T17:11:54.954Z,91.18
2023-02-12T17:12:54.931Z,90.99
2023-02-12T17:13:54.946Z,90.51
2023-02-12T17:14:54.904Z,91.09
2023-02-12T17:15:55.335Z,92.13
2023-02-12T17:16:54.919Z,90.85
2023-02-12T17:17:54.867Z,91.60
2023-02-12T17:18:54.878Z,90.98
2023-02-12T17:19:54.830Z,90.41
2023-02-12T17:20:54.819Z,90.86
2023-02-12T17:21:54.782Z,92.37
2023-02-12T17:22:54.763Z,92.54
2023-02-12T17:23:54.737Z,92.46
2023-02-12T17:24:54.791Z,91.20
2023-02-12T17:25:55.040Z,89.13
2023-02-12T17:26:54.731Z,92.02
2023-02-12T17:27:54.680Z,90.15
2023-02-12T17:28:54.660Z,89.47
2023-02-12T17:29:54.633Z,90.13
2023-02-12T17:30:54.801Z,90.91
2023-02-12T17:31:54.639Z,90.35
2023-02-12T17:32:54.576Z,89.61
2023-02-12T17:33:54.754Z,89.17
2023-02-12T17:34:54.568Z,87.58
2023-02-12T17:35:54.545Z,90.07
2023-02-12T17:36:54.514Z,90.22
2023-02-12T17:37:54.483Z,90.14
2023-02-12T17:38:54.486Z,90.52
2023-02-12T17:39:55.212Z,87.50
2023-02-12T17:40:54.663Z,87.73
2023-02-12T17:41:54.397Z,86.68
2023-02-12T17:42:54.426Z,86.91
2023-02-12T17:43:54.384Z,87.15
2023-02-12T17:44:54.347Z,86.96
2023-02-12T17:45:54.450Z,88.21
2023-02-12T17:46:54.319Z,88.13
2023-02-12T17:47:54.294Z,87.13
2023-02-12T17:48:54.265Z,87.88
2023-02-12T17:49:54.230Z,88.44
2023-02-12T17:50:54.514Z,88.65
2023-02-12T17:51:54.263Z,87.28
2023-02-12T17:52:54.168Z,87.13
2023-02-12T17:53:54.187Z,88.18
2023-02-12T17:54:54.143Z,85.26
2023-02-12T17:55:54.128Z,84.81
2023-02-12T17:56:54.127Z,86.36
2023-02-12T17:57:54.094Z,84.57
2023-02-12T17:58:54.258Z,86.40
2023-02-12T17:59:54.036Z,84.04
2023-02-12T18:00:54.037Z,85.56
2023-02-12T18:01:54.016Z,85.95
2023-02-12T18:02:54.018Z,86.18
2023-02-12T18:03:55.124Z,87.33
2023-02-12T18:04:53.957Z,84.24
2023-02-12T18:06:54.083Z,84.25
2023-02-12T21:00:50.942Z,72.44
2023-02-12T21:14:50.742Z,73.55
2023-02-12T21:26:50.558Z,73.59
